Time;durP1;ratioP1;P1;durP2;ratioP2;P2;SDS_P1;SDS_P2;PMS_P1;PMS_P2;Temp;Humidity;BMP_temperature;BMP_pressure;BME280_temperature;BME280_humidity;BME280_pressure;Samples;Min_cycle;Max_cycle;Signal;HPM_P1;HPM_P2
2022/02/03 00:01:16;;;;;;;3.40;2.25;;;19.80;99.90;;;;;;4164903;28;20632;-77
2022/02/03 00:03:23;;;;;;;4.10;2.40;;;19.80;99.90;;;;;;4165238;28;20267;-77
2022/02/03 00:05:35;;;;;;;3.97;2.20;;;19.80;99.90;;;;;;4164135;28;20290;-77
2022/02/03 00:07:47;;;;;;;3.10;2.20;;;19.80;99.90;;;;;;4162426;28;20263;-77
2022/02/03 00:10:17;;;;;;;2.95;1.90;;;19.80;99.90;;;;;;4165210;28;20239;-77
2022/02/03 00:17:05;;;;;;;4.03;2.13;;;19.80;99.90;;;;;;4164352;28;20257;-77
2022/02/03 00:24:15;;;;;;;3.78;1.88;;;19.70;99.90;;;;;;4162892;28;20645;-77
2022/02/03 00:26:23;;;;;;;3.95;2.33;;;19.70;99.90;;;;;;4166945;28;20275;-77
2022/02/03 00:28:30;;;;;;;3.58;2.10;;;19.70;99.90;;;;;;4164204;28;20618;-77
2022/02/03 00:30:46;;;;;;;5.30;2.30;;;19.70;99.90;;;;;;4162754;28;20223;-77
2022/02/03 00:33:10;;;;;;;2.40;1.88;;;19.70;99.90;;;;;;4165181;28;20215;-77
2022/02/03 00:35:31;;;;;;;3.30;1.95;;;19.70;99.90;;;;;;4163289;28;20279;-77
2022/02/03 00:37:56;;;;;;;2.83;2.08;;;19.70;99.90;;;;;;4165083;28;20283;-77
2022/02/03 00:49:19;;;;;;;3.65;2.08;;;19.70;99.90;;;;;;4164368;28;20200;-77
2022/02/03 00:51:23;;;;;;;2.97;2.05;;;19.70;99.90;;;;;;4160724;28;20212;-77
2022/02/03 00:53:26;;;;;;;3.10;2.10;;;19.70;99.90;;;;;;4162732;28;20216;-77
2022/02/03 00:55:31;;;;;;;3.05;1.98;;;19.60;99.90;;;;;;4163228;28;20216;-77
2022/02/03 00:57:41;;;;;;;2.85;1.95;;;19.60;99.90;;;;;;4163963;28;20270;-77
2022/02/03 00:59:54;;;;;;;3.20;1.80;;;19.60;99.90;;;;;;4165060;28;20251;-77
2022/02/03 01:01:59;;;;;;;2.85;1.92;;;19.60;99.90;;;;;;4163859;28;20286;-78
2022/02/03 01:04:06;;;;;;;3.53;1.83;;;19.60;99.90;;;;;;4163851;28;20224;-78
2022/02/03 01:06:13;;;;;;;3.38;2.05;;;19.60;99.90;;;;;;4163503;28;20271;-77
2022/02/03 01:08:19;;;;;;;2.50;2.10;;;19.60;99.90;;;;;;4163156;28;20263;-77
2022/02/03 01:10:28;;;;;;;2.10;1.58;;;19.60;99.90;;;;;;4162037;28;20228;-77
2022/02/03 01:12:39;;;;;;;2.58;1.77;;;19.60;99.90;;;;;;4163202;28;20215;-77
2022/02/03 01:14:50;;;;;;;2.28;1.95;;;19.50;99.90;;;;;;4163573;28;20232;-77
2022/02/03 01:17:09;;;;;;;2.80;1.85;;;19.60;99.90;;;;;;4165006;28;20306;-77
2022/02/03 01:19:37;;;;;;;2.78;1.92;;;19.60;99.90;;;;;;4165170;28;20271;-77
2022/02/03 01:33:29;;;;;;;3.25;1.75;;;19.60;99.90;;;;;;4163980;28;20241;-78
2022/02/03 01:34:27;;;;;;;2.45;1.80;;;19.60;99.90;;;;;;4164391;28;20201;-78
2022/02/03 01:43:54;;;;;;;3.63;1.67;;;19.60;99.90;;;;;;4123865;28;20205;-77
2022/02/03 01:46:09;;;;;;;3.38;2.15;;;19.50;99.90;;;;;;4146484;28;20267;-77
2022/02/03 01:48:22;;;;;;;2.83;1.77;;;19.50;99.90;;;;;;4145359;28;20274;-77
2022/02/03 01:52:46;;;;;;;4.90;1.88;;;19.40;99.90;;;;;;4147508;28;20205;-77
2022/02/03 01:54:53;;;;;;;3.75;2.15;;;19.50;99.90;;;;;;4147346;28;20267;-77
2022/02/03 01:57:08;;;;;;;2.50;1.75;;;19.50;99.90;;;;;;4144992;28;20276;-77
2022/02/03 01:59:21;;;;;;;3.47;1.70;;;19.50;99.90;;;;;;4144704;28;20217;-77
2022/02/03 02:01:25;;;;;;;3.25;1.80;;;19.50;99.90;;;;;;4144143;28;20255;-77
2022/02/03 02:03:39;;;;;;;5.18;1.90;;;19.50;99.90;;;;;;4145109;28;20636;-77
2022/02/03 02:06:03;;;;;;;2.00;1.52;;;19.50;99.90;;;;;;4146904;28;20212;-77
2022/02/03 02:08:19;;;;;;;3.70;1.73;;;19.40;99.90;;;;;;4146021;28;20685;-77
2022/02/03 02:10:50;;;;;;;2.50;1.50;;;19.40;99.90;;;;;;4146127;28;21979;-77
2022/02/03 02:13:16;;;;;;;2.03;1.50;;;19.50;99.90;;;;;;4145837;28;20221;-77
2022/02/03 02:18:21;;;;;;;2.42;1.50;;;19.40;99.90;;;;;;4108114;28;20206;-77
2022/02/03 02:37:34;;;;;;;1.85;1.48;;;19.40;99.90;;;;;;4148161;28;20232;-77
2022/02/03 02:39:51;;;;;;;3.00;1.90;;;19.40;99.90;;;;;;4162838;28;20230;-77
2022/02/03 02:42:31;;;;;;;3.35;1.92;;;19.40;99.90;;;;;;4165705;28;20290;-77
2022/02/03 02:44:45;;;;;;;3.13;1.80;;;19.40;99.90;;;;;;4167205;28;20211;-77
2022/02/03 02:46:53;;;;;;;2.42;1.60;;;19.40;99.90;;;;;;4167160;28;20269;-77
2022/02/03 02:49:12;;;;;;;3.08;1.48;;;19.40;99.90;;;;;;4169413;28;20212;-77
2022/02/03 02:51:26;;;;;;;3.90;2.05;;;19.40;99.90;;;;;;4162580;28;20240;-77
2022/02/03 02:53:41;;;;;;;3.05;1.63;;;19.40;99.90;;;;;;4164016;28;20661;-77
2022/02/03 02:56:00;;;;;;;2.22;1.80;;;19.30;99.90;;;;;;4164186;28;20224;-77
2022/02/03 02:58:20;;;;;;;2.88;1.55;;;19.30;99.90;;;;;;4164502;28;20219;-77
2022/02/03 03:03:38;;;;;;;2.53;1.77;;;19.30;99.90;;;;;;4124332;28;20748;-77
2022/02/03 03:30:02;;;;;;;3.35;1.65;;;19.30;99.90;;;;;;4166302;28;20203;-77
2022/02/03 03:32:33;;;;;;;2.97;1.45;;;19.30;99.90;;;;;;4166927;28;20221;-77
2022/02/03 03:35:04;;;;;;;1.75;1.38;;;19.30;99.90;;;;;;4164441;28;20270;-77
2022/02/03 03:37:16;;;;;;;2.80;1.52;;;19.30;99.90;;;;;;4164751;28;20651;-77
2022/02/03 03:39:26;;;;;;;3.17;1.60;;;19.20;99.90;;;;;;4162852;28;20261;-77
2022/02/03 03:41:34;;;;;;;2.97;1.77;;;19.30;99.90;;;;;;4161103;28;20220;-77
2022/02/03 03:43:40;;;;;;;2.15;1.67;;;19.20;99.90;;;;;;4163294;28;20297;-77
2022/02/03 03:45:47;;;;;;;2.55;1.60;;;19.20;99.90;;;;;;4164645;28;20224;-77
2022/02/03 03:47:56;;;;;;;2.63;1.58;;;19.30;99.90;;;;;;4164045;28;20260;-77
2022/02/03 03:50:04;;;;;;;3.13;1.85;;;19.20;99.90;;;;;;4162570;28;20212;-77
2022/02/03 03:52:12;;;;;;;2.60;1.50;;;19.20;99.90;;;;;;4164116;28;20859;-77
2022/02/03 03:54:28;;;;;;;2.83;1.55;;;19.20;99.90;;;;;;4164170;28;20628;-76
2022/02/03 03:56:43;;;;;;;3.10;1.85;;;19.20;99.90;;;;;;4166262;28;20263;-76
2022/02/03 04:31:18;;;;;;;2.30;1.75;;;19.10;99.90;;;;;;4140990;28;20212;-76
2022/02/03 04:33:54;;;;;;;4.45;1.58;;;19.10;99.90;;;;;;4165644;28;20254;-77
2022/02/03 04:51:35;;;;;;;2.92;1.50;;;19.10;99.90;;;;;;4150982;28;20204;-76
2022/02/03 04:56:54;;;;;;;3.83;2.00;;;19.00;99.90;;;;;;4125249;28;20276;-77
2022/02/03 04:59:30;;;;;;;3.70;1.73;;;19.00;99.90;;;;;;4165271;28;20231;-77
2022/02/03 05:02:05;;;;;;;2.78;2.00;;;19.10;99.90;;;;;;4164475;28;20208;-77
2022/02/03 05:04:33;;;;;;;2.47;1.80;;;19.00;99.90;;;;;;4164218;28;20576;-77
2022/02/03 05:07:02;;;;;;;2.53;1.60;;;19.00;99.90;;;;;;4165776;28;20212;-76
2022/02/03 05:09:27;;;;;;;2.83;1.73;;;19.00;99.90;;;;;;4164280;28;20702;-77
2022/02/03 05:12:05;;;;;;;3.65;1.70;;;19.00;99.90;;;;;;4164443;28;20228;-77
2022/02/03 05:14:38;;;;;;;2.65;1.58;;;19.00;99.90;;;;;;4164537;28;20224;-77
2022/02/03 05:17:20;;;;;;;3.13;1.50;;;19.00;99.90;;;;;;4165825;28;20277;-77
2022/02/03 05:48:04;;;;;;;2.80;1.67;;;18.90;99.90;;;;;;4102320;28;20241;-77
2022/02/03 05:55:05;;;;;;;3.20;1.80;;;18.80;99.90;;;;;;4128252;28;20270;-78
2022/02/03 06:04:31;;;;;;;2.67;1.30;;;18.70;99.90;;;;;;4157688;28;20297;-78
2022/02/03 06:06:52;;;;;;;2.20;1.70;;;18.80;99.90;;;;;;4165977;28;20564;-78
2022/02/03 06:09:01;;;;;;;3.95;1.83;;;18.90;99.90;;;;;;4169826;28;20269;-77
2022/02/03 06:13:38;;;;;;;2.72;1.58;;;18.90;99.90;;;;;;4166412;28;20943;-78
2022/02/03 06:15:46;;;;;;;2.55;1.50;;;18.90;99.90;;;;;;4168024;28;20212;-77
2022/02/03 06:20:43;;;;;;;2.20;1.48;;;18.90;99.90;;;;;;4167324;28;20219;-78
2022/02/03 06:22:43;;;;;;;2.15;1.50;;;18.90;99.90;;;;;;4170204;28;20204;-77
2022/02/03 06:27:22;;;;;;;3.55;1.50;;;18.90;99.90;;;;;;4169776;28;20271;-77
2022/02/03 06:27:24;;;;;;;3.97;1.58;;;18.90;99.90;;;;;;4168157;28;20212;-78
2022/02/03 06:29:30;;;;;;;2.65;1.50;;;18.90;99.90;;;;;;4171238;28;20270;-77
2022/02/03 06:31:35;;;;;;;1.90;1.48;;;18.90;99.90;;;;;;4164744;28;20267;-77
2022/02/03 06:33:37;;;;;;;2.85;1.63;;;18.90;99.90;;;;;;4167234;28;20282;-77
2022/02/03 06:35:39;;;;;;;3.30;1.25;;;18.90;99.90;;;;;;4168691;28;20228;-78
2022/02/03 06:37:44;;;;;;;2.72;1.48;;;18.90;99.90;;;;;;4165120;28;20244;-78
2022/02/03 06:39:46;;;;;;;3.70;1.55;;;19.00;99.90;;;;;;4170715;28;20215;-77
2022/02/03 06:41:53;;;;;;;3.42;1.70;;;18.90;99.90;;;;;;4169334;28;20765;-78
2022/02/03 06:43:57;;;;;;;2.08;1.35;;;19.00;99.90;;;;;;4169537;28;20285;-77
2022/02/03 06:46:03;;;;;;;3.03;1.30;;;19.00;99.90;;;;;;4170738;28;20617;-77
2022/02/03 06:48:11;;;;;;;2.50;1.10;;;19.00;99.90;;;;;;4171681;28;20213;-77
2022/02/03 06:50:17;;;;;;;1.50;1.00;;;19.00;99.90;;;;;;4167566;28;20223;-78
2022/02/03 06:52:25;;;;;;;3.75;1.38;;;19.00;99.90;;;;;;4165840;28;20216;-78
2022/02/03 06:54:36;;;;;;;3.10;1.48;;;19.00;99.90;;;;;;4170106;28;20883;-77
2022/02/03 06:56:47;;;;;;;3.70;1.38;;;19.00;99.90;;;;;;4165035;28;20637;-76
2022/02/03 06:58:53;;;;;;;4.07;1.27;;;19.00;99.90;;;;;;4168049;28;20266;-76
2022/02/03 07:01:03;;;;;;;3.88;1.42;;;19.00;99.90;;;;;;4169272;28;20287;-77
2022/02/03 07:03:11;;;;;;;3.08;1.55;;;19.00;99.90;;;;;;4169522;28;20306;-78
2022/02/03 07:05:14;;;;;;;2.67;1.30;;;19.10;99.90;;;;;;4169379;28;20215;-78
2022/02/03 07:07:18;;;;;;;2.47;1.55;;;19.10;99.90;;;;;;4167725;28;20262;-78
2022/02/03 07:09:20;;;;;;;2.75;1.20;;;19.10;99.90;;;;;;4171665;28;20208;-78
2022/02/03 07:11:24;;;;;;;2.40;1.38;;;19.10;99.90;;;;;;4167065;28;20216;-78
2022/02/03 07:13:26;;;;;;;2.95;1.50;;;19.10;99.90;;;;;;4167030;28;20278;-78
2022/02/03 07:15:29;;;;;;;3.25;1.33;;;19.10;99.90;;;;;;4166989;28;20228;-78
2022/02/03 07:17:33;;;;;;;4.15;1.40;;;19.10;99.90;;;;;;4168232;28;20259;-77
2022/02/03 07:19:42;;;;;;;2.90;1.67;;;19.10;99.90;;;;;;4168995;28;20217;-78
2022/02/03 07:21:46;;;;;;;2.80;1.50;;;19.10;99.90;;;;;;4168406;28;20211;-78
2022/02/03 07:23:49;;;;;;;2.83;1.55;;;19.10;99.90;;;;;;4163364;28;20302;-78
2022/02/03 07:25:51;;;;;;;2.88;1.42;;;19.10;99.90;;;;;;4163842;28;20271;-77
2022/02/03 07:27:53;;;;;;;2.78;1.58;;;19.10;99.90;;;;;;4169936;28;20677;-77
2022/02/03 07:29:56;;;;;;;2.45;1.40;;;19.20;99.90;;;;;;4170928;28;20684;-78
2022/02/03 07:31:58;;;;;;;2.13;1.40;;;19.20;99.90;;;;;;4165807;28;20273;-77
2022/02/03 07:34:09;;;;;;;3.00;1.30;;;19.20;99.90;;;;;;4164560;28;20209;-77
2022/02/03 07:36:11;;;;;;;3.40;1.50;;;19.20;99.90;;;;;;4173161;28;20211;-78
2022/02/03 07:38:14;;;;;;;2.47;1.30;;;19.20;99.90;;;;;;4170869;28;20350;-77
2022/02/03 07:40:17;;;;;;;4.88;1.52;;;19.20;99.90;;;;;;4164263;28;20625;-77
2022/02/03 07:42:19;;;;;;;2.50;1.48;;;19.20;99.90;;;;;;4177770;28;20220;-78
2022/02/03 07:44:22;;;;;;;3.85;1.90;;;19.20;99.90;;;;;;4178025;28;20240;-77
2022/02/03 07:46:24;;;;;;;2.20;1.08;;;19.20;99.90;;;;;;4170699;28;20277;-77
2022/02/03 07:48:26;;;;;;;2.78;1.45;;;19.20;99.90;;;;;;4176029;28;20261;-77
2022/02/03 07:50:31;;;;;;;2.75;1.52;;;19.20;99.90;;;;;;4174293;28;21603;-78
2022/02/03 07:52:33;;;;;;;4.68;1.60;;;19.20;99.90;;;;;;4170185;28;20617;-79
2022/02/03 07:54:38;;;;;;;4.45;1.52;;;19.30;99.90;;;;;;4172091;28;20619;-77
2022/02/03 07:56:40;;;;;;;8.05;2.00;;;19.20;99.90;;;;;;4163999;28;20275;-78
2022/02/03 07:58:46;;;;;;;5.05;1.60;;;19.30;99.90;;;;;;4169188;28;20261;-78
2022/02/03 08:00:48;;;;;;;2.67;1.58;;;19.30;99.90;;;;;;4163918;28;20723;-80
2022/02/03 08:02:51;;;;;;;9.02;1.90;;;19.40;99.90;;;;;;4162512;28;20275;-79
2022/02/03 08:04:54;;;;;;;3.97;1.70;;;19.50;99.90;;;;;;4160253;28;20240;-79
2022/02/03 08:06:59;;;;;;;4.43;1.60;;;19.50;99.90;;;;;;4158961;28;20220;-79
2022/02/03 08:09:06;;;;;;;3.30;1.23;;;19.50;99.90;;;;;;4160347;28;20287;-79
2022/02/03 08:11:12;;;;;;;3.25;1.83;;;19.50;99.90;;;;;;4165985;28;20277;-81
2022/02/03 08:13:20;;;;;;;6.45;1.63;;;19.60;99.90;;;;;;4163659;28;20213;-82
2022/02/03 08:15:25;;;;;;;3.85;1.58;;;19.60;99.90;;;;;;4157631;28;21807;-79
2022/02/03 08:17:35;;;;;;;3.80;1.70;;;19.60;99.90;;;;;;4166372;28;20216;-80
2022/02/03 08:19:45;;;;;;;7.07;1.63;;;19.70;99.90;;;;;;4162246;28;20223;-81
2022/02/03 08:21:57;;;;;;;7.80;1.63;;;19.70;99.90;;;;;;4167519;28;20888;-80
2022/02/03 08:24:18;;;;;;;2.83;1.52;;;19.70;99.90;;;;;;4156198;28;20229;-77
2022/02/03 08:26:42;;;;;;;3.10;1.48;;;19.70;99.90;;;;;;4160237;28;20797;-80
2022/02/03 08:29:10;;;;;;;3.22;1.60;;;19.80;99.90;;;;;;4156153;28;21306;-78
2022/02/03 08:31:21;;;;;;;6.38;1.58;;;19.80;99.90;;;;;;4149267;28;20215;-79
2022/02/03 08:33:26;;;;;;;6.60;1.63;;;19.80;99.90;;;;;;4158018;28;20766;-78
2022/02/03 08:35:42;;;;;;;4.45;1.60;;;19.80;99.90;;;;;;4159069;28;20213;-80
2022/02/03 08:37:47;;;;;;;4.20;1.52;;;19.90;99.90;;;;;;4160713;28;20287;-79
2022/02/03 08:39:54;;;;;;;5.18;1.60;;;19.90;99.90;;;;;;4164740;28;20277;-78
2022/02/03 08:41:57;;;;;;;4.13;1.40;;;19.90;99.90;;;;;;4161047;28;20216;-79
2022/02/03 08:43:59;;;;;;;3.58;1.80;;;19.90;99.90;;;;;;4164551;28;20301;-79
2022/02/03 08:46:04;;;;;;;4.38;1.70;;;20.00;99.90;;;;;;4156672;28;20278;-79
2022/02/03 08:48:07;;;;;;;4.68;1.83;;;19.80;99.90;;;;;;4160322;28;20275;-80
2022/02/03 08:50:10;;;;;;;4.78;1.70;;;19.90;99.90;;;;;;4161995;28;20265;-79
2022/02/03 08:52:17;;;;;;;2.63;1.33;;;20.00;99.90;;;;;;4167360;28;20211;-81
2022/02/03 08:54:22;;;;;;;5.30;1.63;;;20.00;99.90;;;;;;4161893;28;20217;-78
2022/02/03 08:56:34;;;;;;;3.55;1.70;;;20.10;99.90;;;;;;4153790;28;20228;-83
2022/02/03 09:39:02;;;;;;;5.95;1.70;;;20.50;99.90;;;;;;4150576;28;20202;-85
2022/02/03 09:41:26;;;;;;;3.80;1.20;;;20.50;99.90;;;;;;4150707;28;20299;-86
2022/02/03 09:53:03;;;;;;;5.90;1.80;;;20.60;99.90;;;;;;4148633;28;20193;-82
2022/02/03 09:55:16;;;;;;;3.50;1.60;;;20.60;99.90;;;;;;4142979;28;20666;-84
2022/02/03 09:59:47;;;;;;;6.13;1.38;;;20.50;99.90;;;;;;4147638;28;20266;-83
2022/02/03 10:02:07;;;;;;;5.72;1.90;;;20.60;99.90;;;;;;4142800;28;20224;-82
2022/02/03 10:04:14;;;;;;;9.70;2.20;;;20.60;99.90;;;;;;4148881;28;20213;-84
2022/02/03 10:06:20;;;;;;;4.60;1.80;;;20.60;99.90;;;;;;4142792;28;20765;-82
2022/02/03 10:08:23;;;;;;;7.50;1.80;;;20.50;99.90;;;;;;4147486;28;20221;-86
2022/02/03 10:10:29;;;;;;;7.13;1.75;;;20.60;99.90;;;;;;4149628;28;20286;-88
2022/02/03 10:12:32;;;;;;;9.98;2.25;;;20.60;99.90;;;;;;4142964;28;20713;-87
2022/02/03 10:14:39;;;;;;;10.35;1.92;;;20.60;99.90;;;;;;4143487;28;20275;-79
2022/02/03 10:16:43;;;;;;;7.78;1.73;;;20.60;99.90;;;;;;4146531;28;20217;-79
2022/02/03 10:18:49;;;;;;;13.63;2.38;;;20.70;99.90;;;;;;4150680;28;20213;-85
2022/02/03 10:20:52;;;;;;;4.72;1.90;;;20.80;99.90;;;;;;4147812;28;20221;-85
2022/02/03 10:22:57;;;;;;;6.97;2.00;;;20.80;99.90;;;;;;4127366;28;20213;-84
2022/02/03 10:25:09;;;;;;;11.43;2.33;;;20.70;99.90;;;;;;4143936;28;20577;-82
2022/02/03 10:27:26;;;;;;;8.43;1.88;;;20.80;99.90;;;;;;4151827;28;20270;-84
2022/02/03 10:29:35;;;;;;;7.95;1.67;;;20.80;99.90;;;;;;4145755;28;20216;-81
2022/02/03 10:31:40;;;;;;;7.03;1.67;;;20.80;99.90;;;;;;4148768;28;20306;-82
2022/02/03 10:33:43;;;;;;;6.03;1.90;;;20.80;99.90;;;;;;4149096;28;20251;-84
2022/02/03 10:35:50;;;;;;;9.00;2.00;;;20.90;99.90;;;;;;4147666;28;21112;-83
2022/02/03 10:38:31;;;;;;;9.07;2.10;;;20.80;99.90;;;;;;4158022;28;20643;-79
2022/02/03 10:40:49;;;;;;;6.82;2.00;;;20.80;99.90;;;;;;4158314;28;20220;-81
2022/02/03 10:45:37;;;;;;;4.05;1.48;;;20.80;99.90;;;;;;4154193;28;20282;-79
2022/02/03 10:55:23;;;;;;;8.82;2.05;;;21.00;99.90;;;;;;4149009;28;20220;-75
2022/02/03 10:57:59;;;;;;;9.13;1.95;;;21.00;99.90;;;;;;4155357;28;20224;-75
2022/02/03 11:00:12;;;;;;;5.10;2.00;;;21.00;99.90;;;;;;4160233;28;20275;-75
2022/02/03 11:05:04;;;;;;;4.75;1.80;;;21.00;99.90;;;;;;4161964;28;20193;-75
2022/02/03 11:07:13;;;;;;;4.07;1.30;;;21.10;99.90;;;;;;4161184;28;20216;-76
2022/02/03 11:09:23;;;;;;;4.95;1.70;;;21.10;99.90;;;;;;4155320;28;20577;-74
2022/02/03 11:11:35;;;;;;;3.88;1.60;;;21.00;99.90;;;;;;4160278;28;20267;-75
2022/02/03 11:13:38;;;;;;;5.70;1.85;;;21.10;99.90;;;;;;4158777;28;20224;-77
2022/02/03 11:15:42;;;;;;;5.65;2.22;;;21.00;99.90;;;;;;4158637;28;20263;-76
2022/02/03 11:17:48;;;;;;;4.10;1.75;;;21.00;99.90;;;;;;4160239;28;20264;-76
2022/02/03 11:19:53;;;;;;;3.83;1.92;;;21.10;99.90;;;;;;4158781;28;20259;-75
2022/02/03 11:22:04;;;;;;;4.10;1.98;;;21.10;99.90;;;;;;4158574;28;20220;-74
2022/02/03 11:24:17;;;;;;;8.10;2.55;;;21.10;99.90;;;;;;4157529;28;20216;-75
2022/02/03 11:26:29;;;;;;;5.43;2.35;;;21.10;99.90;;;;;;4156721;28;20290;-76
2022/02/03 11:31:17;;;;;;;4.45;2.10;;;21.10;99.90;;;;;;4157933;28;20208;-74
2022/02/03 11:38:21;;;;;;;6.57;2.60;;;21.30;99.90;;;;;;4157383;28;20236;-75
2022/02/03 11:40:37;;;;;;;5.45;2.95;;;21.20;99.90;;;;;;4164373;28;20239;-77
2022/02/03 11:45:48;;;;;;;6.88;2.25;;;21.30;99.90;;;;;;4256514;27;22421;-79
2022/02/03 11:48:17;;;;;;;3.70;2.20;;;21.30;99.90;;;;;;4253541;27;20245;-75
2022/02/03 11:53:07;;;;;;;3.42;1.92;;;21.30;99.90;;;;;;4211798;27;20641;-76
2022/02/03 11:55:48;;;;;;;2.30;1.85;;;21.40;99.90;;;;;;4256154;27;21597;-77
2022/02/03 11:58:10;;;;;;;5.72;2.20;;;21.40;99.90;;;;;;4256748;27;20257;-76
2022/02/03 12:03:10;;;;;;;3.22;1.67;;;21.40;99.90;;;;;;4253844;27;20204;-76
2022/02/03 12:05:58;;;;;;;6.80;2.17;;;21.40;99.90;;;;;;4258903;27;20236;-76
2022/02/03 12:11:24;;;;;;;3.47;1.80;;;21.50;99.90;;;;;;4253760;27;20256;-76
2022/02/03 12:13:59;;;;;;;3.58;2.03;;;21.50;99.90;;;;;;4251378;27;20261;-78
2022/02/03 12:16:25;;;;;;;5.15;2.10;;;21.50;99.90;;;;;;4256674;27;20220;-78
2022/02/03 12:21:09;;;;;;;4.35;2.13;;;21.60;99.90;;;;;;4250804;27;20286;-79
2022/02/03 12:23:38;;;;;;;3.58;2.08;;;21.50;99.90;;;;;;4258604;27;20660;-79
2022/02/03 12:25:51;;;;;;;3.20;2.10;;;21.50;99.90;;;;;;4259217;27;20213;-79
2022/02/03 12:28:11;;;;;;;3.65;2.10;;;21.50;99.90;;;;;;4256665;27;20265;-80
2022/02/03 12:30:25;;;;;;;3.28;1.88;;;21.50;99.90;;;;;;4257101;27;20220;-78
2022/02/03 12:33:04;;;;;;;3.90;2.00;;;21.50;99.90;;;;;;4256857;27;20205;-77
2022/02/03 12:37:30;;;;;;;5.05;2.30;;;21.50;99.90;;;;;;4255005;27;20888;-76
2022/02/03 12:39:43;;;;;;;5.22;2.15;;;21.50;99.90;;;;;;4256271;27;20208;-76
2022/02/03 12:42:01;;;;;;;3.40;2.10;;;21.60;99.90;;;;;;4256696;27;20721;-75
2022/02/03 12:44:11;;;;;;;5.13;2.15;;;21.50;99.90;;;;;;4255054;27;20344;-76
2022/02/03 12:46:14;;;;;;;10.15;2.33;;;21.50;99.90;;;;;;4252685;27;20216;-73
2022/02/03 12:48:24;;;;;;;5.80;2.10;;;21.50;99.90;;;;;;4251992;27;20661;-73
2022/02/03 12:50:31;;;;;;;6.43;2.15;;;21.50;99.90;;;;;;4253466;27;20253;-72
2022/02/03 12:52:33;;;;;;;6.78;2.35;;;21.60;99.90;;;;;;4254363;27;20266;-74
2022/02/03 12:54:36;;;;;;;4.35;2.10;;;21.60;99.90;;;;;;4253172;27;20253;-74
2022/02/03 12:56:38;;;;;;;3.35;2.17;;;21.60;99.90;;;;;;4241698;27;20242;-74
2022/02/03 12:58:44;;;;;;;4.93;1.95;;;21.60;99.90;;;;;;4241263;27;20308;-74
2022/02/03 13:00:53;;;;;;;6.65;2.20;;;21.60;99.90;;;;;;4245424;27;20278;-72
2022/02/03 13:03:01;;;;;;;4.63;2.10;;;21.60;99.90;;;;;;4241961;27;20220;-72
2022/02/03 13:05:04;;;;;;;5.72;2.33;;;21.60;99.90;;;;;;4243591;27;20248;-73
2022/02/03 13:07:09;;;;;;;6.55;2.35;;;21.60;99.90;;;;;;4239894;27;20221;-73
2022/02/03 13:09:13;;;;;;;5.40;2.40;;;21.60;99.90;;;;;;4239042;27;20270;-74
2022/02/03 13:11:20;;;;;;;6.00;2.10;;;21.60;99.90;;;;;;4245068;27;20230;-72
2022/02/03 13:13:30;;;;;;;4.75;2.22;;;21.60;99.90;;;;;;4245298;27;20234;-74
2022/02/03 13:15:37;;;;;;;4.38;2.30;;;21.60;99.90;;;;;;4239772;27;20218;-73
2022/02/03 13:17:53;;;;;;;5.50;2.05;;;21.70;99.90;;;;;;4242534;27;20270;-73
2022/02/03 13:20:08;;;;;;;4.55;2.00;;;21.60;99.90;;;;;;4239734;27;20209;-72
2022/02/03 13:22:19;;;;;;;6.32;2.28;;;21.70;99.90;;;;;;4241256;27;20205;-72
2022/02/03 13:26:44;;;;;;;4.10;1.85;;;21.60;99.90;;;;;;4232989;27;20962;-74
2022/02/03 13:28:58;;;;;;;5.00;1.95;;;21.60;99.90;;;;;;4238601;27;20271;-74
2022/02/03 13:31:17;;;;;;;4.95;2.47;;;21.60;99.90;;;;;;4237451;27;20216;-72
2022/02/03 13:33:25;;;;;;;6.35;2.17;;;21.60;99.90;;;;;;4237404;27;20676;-72
2022/02/03 13:35:31;;;;;;;4.50;2.03;;;21.60;99.90;;;;;;4242896;27;20217;-72
2022/02/03 13:37:40;;;;;;;4.28;2.17;;;21.60;99.90;;;;;;4238864;27;20221;-72
2022/02/03 13:39:46;;;;;;;4.97;2.40;;;21.60;99.90;;;;;;4239555;27;20212;-71
2022/02/03 13:41:50;;;;;;;6.93;2.13;;;21.60;99.90;;;;;;4238384;27;20217;-72
2022/02/03 13:43:53;;;;;;;9.30;4.25;;;21.60;99.90;;;;;;4240248;27;20270;-72
2022/02/03 13:45:55;;;;;;;8.70;4.28;;;20.40;99.90;;;;;;4241956;27;20281;-72
2022/02/03 13:47:57;;;;;;;12.15;4.28;;;19.60;99.90;;;;;;4242632;27;20266;-71
2022/02/03 13:50:09;;;;;;;11.52;3.53;;;20.00;99.90;;;;;;4242683;27;20217;-72
2022/02/03 13:52:16;;;;;;;9.82;3.30;;;20.40;99.90;;;;;;4243058;27;20213;-71
2022/02/03 14:16:40;;;;;;;6.28;1.95;;;21.50;99.90;;;;;;4166496;28;20203;-70
2022/02/03 14:21:05;;;;;;;5.15;2.42;;;21.50;99.90;;;;;;4242321;27;20193;-71
2022/02/03 14:28:01;;;;;;;5.25;2.70;;;21.50;99.90;;;;;;4213234;27;20208;-71
2022/02/03 14:30:14;;;;;;;5.65;2.30;;;21.50;99.90;;;;;;4242665;27;20205;-71
2022/02/03 14:32:26;;;;;;;5.15;2.35;;;21.60;99.90;;;;;;4241186;27;20236;-80
2022/02/03 14:34:31;;;;;;;4.82;2.30;;;21.50;99.90;;;;;;4239113;27;20265;-79
2022/02/03 14:36:34;;;;;;;6.25;2.20;;;21.60;99.90;;;;;;4245035;27;20213;-78
2022/02/03 14:38:43;;;;;;;4.50;2.50;;;21.60;99.90;;;;;;4243110;27;20216;-80
2022/02/03 14:40:58;;;;;;;3.83;2.42;;;21.60;99.90;;;;;;4242829;27;20636;-79
2022/02/03 14:43:04;;;;;;;6.00;2.17;;;21.60;99.90;;;;;;4243202;27;20921;-83
2022/02/03 14:45:10;;;;;;;6.35;2.38;;;21.60;99.90;;;;;;4240049;27;20233;-79
2022/02/03 14:47:12;;;;;;;4.70;2.30;;;21.60;99.90;;;;;;4243151;27;20221;-79
2022/02/03 14:49:14;;;;;;;4.22;2.42;;;21.70;99.90;;;;;;4242531;27;20209;-78
2022/02/03 14:51:22;;;;;;;4.70;2.40;;;21.60;99.90;;;;;;4240743;27;20213;-81
2022/02/03 14:53:31;;;;;;;4.38;2.33;;;21.60;99.90;;;;;;4242611;27;20621;-80
2022/02/03 14:58:04;;;;;;;8.63;2.72;;;21.60;99.90;;;;;;4243555;27;20193;-81
2022/02/03 15:00:13;;;;;;;6.53;2.80;;;21.50;99.90;;;;;;4243716;27;20212;-83
2022/02/03 15:02:15;;;;;;;5.30;2.20;;;21.60;99.90;;;;;;4243116;27;20937;-82
2022/02/03 15:04:26;;;;;;;5.65;2.47;;;21.60;99.90;;;;;;4239863;27;20290;-82
2022/02/03 15:06:35;;;;;;;10.18;2.60;;;21.70;99.90;;;;;;4244011;27;20236;-83
2022/02/03 15:08:55;;;;;;;5.75;2.70;;;21.70;99.90;;;;;;4240641;27;20220;-82
2022/02/03 15:11:06;;;;;;;4.97;2.65;;;21.70;99.90;;;;;;4242424;27;20216;-78
2022/02/03 15:13:13;;;;;;;7.80;2.65;;;21.70;99.90;;;;;;4242317;27;20213;-78
2022/02/03 15:15:17;;;;;;;5.57;2.47;;;21.70;99.90;;;;;;4240226;27;20603;-81
2022/02/03 15:17:21;;;;;;;8.38;3.10;;;21.60;99.90;;;;;;4244825;27;20213;-83
2022/02/03 15:19:24;;;;;;;5.90;2.55;;;21.60;99.90;;;;;;4240409;27;20209;-80
2022/02/03 15:21:26;;;;;;;4.30;2.30;;;21.60;99.90;;;;;;4241208;27;20225;-81
2022/02/03 15:23:29;;;;;;;8.38;2.92;;;21.60;99.90;;;;;;4240017;27;20258;-78
2022/02/03 15:25:32;;;;;;;6.70;2.95;;;21.70;99.90;;;;;;4240689;27;20636;-78
2022/02/03 15:27:35;;;;;;;7.10;2.50;;;21.70;99.90;;;;;;4245266;27;20225;-78
2022/02/03 15:29:38;;;;;;;6.53;2.40;;;21.60;99.90;;;;;;4241760;27;20265;-80
2022/02/03 15:31:42;;;;;;;4.20;2.42;;;21.60;99.90;;;;;;4239769;27;20265;-79
2022/02/03 15:33:52;;;;;;;3.53;2.22;;;21.70;99.90;;;;;;4240483;27;20253;-80
2022/02/03 15:35:58;;;;;;;4.55;2.55;;;21.60;99.90;;;;;;4239878;27;20661;-78
2022/02/03 15:38:02;;;;;;;4.68;2.42;;;21.70;99.90;;;;;;4239788;27;20221;-79
2022/02/03 15:40:11;;;;;;;5.50;2.58;;;21.70;99.90;;;;;;4239869;27;20618;-79
2022/02/03 15:42:13;;;;;;;5.40;2.20;;;21.50;99.90;;;;;;4240836;27;20650;-77
2022/02/03 15:44:16;;;;;;;7.32;2.75;;;21.50;99.90;;;;;;4244783;28;20404;-79
2022/02/03 15:46:31;;;;;;;7.72;2.75;;;21.60;99.90;;;;;;4235608;27;21811;-79
2022/02/03 15:48:41;;;;;;;6.47;2.80;;;21.60;99.90;;;;;;4241800;27;20278;-72
2022/02/03 16:02:46;;;;;;;4.63;2.15;;;21.80;99.90;;;;;;4213355;28;20212;-80
2022/02/03 16:16:52;;;;;;;7.82;2.42;;;21.90;99.90;;;;;;4201352;28;20229;-79
2022/02/03 16:18:54;;;;;;;5.60;2.60;;;21.90;99.90;;;;;;4240825;27;20262;-78
2022/02/03 16:21:11;;;;;;;5.63;2.28;;;21.90;99.90;;;;;;4244685;27;20213;-82
2022/02/03 16:23:35;;;;;;;5.15;2.58;;;21.90;99.90;;;;;;4244048;27;20209;-82
2022/02/03 16:51:19;;;;;;;5.00;2.85;;;21.80;99.90;;;;;;4224424;27;20197;-72
2022/02/03 16:53:23;;;;;;;3.35;2.10;;;21.80;99.90;;;;;;4244854;27;20273;-71
2022/02/03 16:55:31;;;;;;;3.90;2.22;;;21.80;99.90;;;;;;4245409;27;20257;-71
2022/02/03 16:57:34;;;;;;;4.25;2.60;;;21.90;99.90;;;;;;4245000;27;20336;-72
2022/02/03 16:59:43;;;;;;;5.28;2.55;;;21.80;99.90;;;;;;4244116;27;20221;-71
2022/02/03 17:01:45;;;;;;;4.70;2.80;;;21.90;99.90;;;;;;4240027;27;20213;-73
2022/02/03 17:03:47;;;;;;;4.13;2.58;;;21.80;99.90;;;;;;4240813;27;20613;-71
2022/02/03 17:05:51;;;;;;;4.53;2.22;;;21.90;99.90;;;;;;4244608;27;20209;-71
2022/02/03 17:07:53;;;;;;;3.97;2.20;;;21.90;99.90;;;;;;4241810;27;20978;-71
2022/02/03 17:09:57;;;;;;;3.47;2.45;;;21.90;99.90;;;;;;4244009;27;20612;-73
2022/02/03 17:11:59;;;;;;;5.93;3.22;;;21.90;99.90;;;;;;4244698;27;20225;-72
2022/02/03 17:14:02;;;;;;;4.90;2.55;;;21.90;99.90;;;;;;4242858;27;21801;-70